Bartelso, Illinois
Current Conditions -  °F | °C
As of 3:55 AM on Sunday 25 Jan 2015 (Local Time) from KENL Reporting Station
Drizzle Drizzle  
Wind Chill: 39°   Ceiling: 6000
Heat Index: 45°   Visibility: 10mi
Dew Point: 33°   Wind: 12mph
Humidity: 62%   Direction: 230°SW
Pressure: 29.65"   Gusts: NA
Location:  38.54°N, 89.47°W
Report Text: KENL 250955Z AUTO 23010KT 10SM -DZ SCT048 BKN060 OVC070 07/00 A2965 RMK AO2 T00720004
Loading
Personal Weather Stations






























Interactive Weather Map New forecast layout! Learn more

10-Day Weather Forecast

Advertisements
Track Severe Weather on mobile